sensor_id;sensor_type;location;lat;lon;timestamp;temperature;humidity
17370;DHT22;8802;52.402;4.920;2022-10-03T00:02:19;15.30;95.30
17370;DHT22;8802;52.402;4.920;2022-10-03T00:05:00;15.20;95.40
17370;DHT22;8802;52.402;4.920;2022-10-03T00:07:37;15.20;95.50
17370;DHT22;8802;52.402;4.920;2022-10-03T00:10:19;15.20;95.50
17370;DHT22;8802;52.402;4.920;2022-10-03T00:12:57;15.20;95.30
17370;DHT22;8802;52.402;4.920;2022-10-03T00:15:35;15.10;95.40
17370;DHT22;8802;52.402;4.920;2022-10-03T00:18:15;15.10;95.50
17370;DHT22;8802;52.402;4.920;2022-10-03T00:20:49;15.10;95.40
17370;DHT22;8802;52.402;4.920;2022-10-03T00:23:25;15.10;95.50
17370;DHT22;8802;52.402;4.920;2022-10-03T00:25:58;15.00;95.50
17370;DHT22;8802;52.402;4.920;2022-10-03T00:28:57;15.00;95.50
17370;DHT22;8802;52.402;4.920;2022-10-03T00:31:37;15.00;95.60
17370;DHT22;8802;52.402;4.920;2022-10-03T00:34:14;14.90;95.50
17370;DHT22;8802;52.402;4.920;2022-10-03T00:36:49;14.90;95.60
17370;DHT22;8802;52.402;4.920;2022-10-03T00:39:31;14.90;95.70
17370;DHT22;8802;52.402;4.920;2022-10-03T00:45:38;14.80;95.60
17370;DHT22;8802;52.402;4.920;2022-10-03T00:51:21;14.80;95.70
17370;DHT22;8802;52.402;4.920;2022-10-03T00:54:03;14.80;95.70
17370;DHT22;8802;52.402;4.920;2022-10-03T00:59:42;14.70;95.80
17370;DHT22;8802;52.402;4.920;2022-10-03T01:02:26;14.70;96.30
17370;DHT22;8802;52.402;4.920;2022-10-03T01:05:04;14.70;96.00
17370;DHT22;8802;52.402;4.920;2022-10-03T01:08:04;14.70;96.10
17370;DHT22;8802;52.402;4.920;2022-10-03T01:10:43;14.70;96.20
17370;DHT22;8802;52.402;4.920;2022-10-03T01:13:23;14.60;96.30
17370;DHT22;8802;52.402;4.920;2022-10-03T01:15:58;14.60;96.40
17370;DHT22;8802;52.402;4.920;2022-10-03T01:18:37;14.70;96.40
17370;DHT22;8802;52.402;4.920;2022-10-03T01:21:11;14.70;96.40
17370;DHT22;8802;52.402;4.920;2022-10-03T01:24:02;14.70;96.50
17370;DHT22;8802;52.402;4.920;2022-10-03T01:26:54;14.70;96.40
17370;DHT22;8802;52.402;4.920;2022-10-03T01:29:31;14.80;96.50
17370;DHT22;8802;52.402;4.920;2022-10-03T01:32:24;14.70;96.50
17370;DHT22;8802;52.402;4.920;2022-10-03T01:35:01;14.70;96.50
17370;DHT22;8802;52.402;4.920;2022-10-03T01:37:39;14.70;96.50
17370;DHT22;8802;52.402;4.920;2022-10-03T01:40:15;14.70;96.50
17370;DHT22;8802;52.402;4.920;2022-10-03T01:42:50;14.70;96.40
17370;DHT22;8802;52.402;4.920;2022-10-03T01:45:28;14.70;96.40
17370;DHT22;8802;52.402;4.920;2022-10-03T01:48:01;14.70;96.40
17370;DHT22;8802;52.402;4.920;2022-10-03T01:50:33;14.70;96.40
17370;DHT22;8802;52.402;4.920;2022-10-03T01:53:07;14.70;96.40
17370;DHT22;8802;52.402;4.920;2022-10-03T01:55:46;14.70;96.40
17370;DHT22;8802;52.402;4.920;2022-10-03T01:58:23;14.60;96.40
17370;DHT22;8802;52.402;4.920;2022-10-03T02:00:57;14.60;96.40
17370;DHT22;8802;52.402;4.920;2022-10-03T02:03:27;14.60;96.40
17370;DHT22;8802;52.402;4.920;2022-10-03T02:06:02;14.60;96.30
17370;DHT22;8802;52.402;4.920;2022-10-03T02:08:42;14.60;96.30
17370;DHT22;8802;52.402;4.920;2022-10-03T02:11:25;14.60;96.30
17370;DHT22;8802;52.402;4.920;2022-10-03T02:13:57;14.50;96.30
17370;DHT22;8802;52.402;4.920;2022-10-03T02:16:36;14.50;96.20
17370;DHT22;8802;52.402;4.920;2022-10-03T02:19:14;14.50;96.30
17370;DHT22;8802;52.402;4.920;2022-10-03T02:21:47;14.50;96.40
17370;DHT22;8802;52.402;4.920;2022-10-03T02:24:27;14.50;96.40
17370;DHT22;8802;52.402;4.920;2022-10-03T02:27:41;14.50;96.40
17370;DHT22;8802;52.402;4.920;2022-10-03T02:30:20;14.40;96.30
17370;DHT22;8802;52.402;4.920;2022-10-03T02:36:23;14.40;96.40
17370;DHT22;8802;52.402;4.920;2022-10-03T02:39:23;14.40;96.30
17370;DHT22;8802;52.402;4.920;2022-10-03T02:42:24;14.40;96.30
17370;DHT22;8802;52.402;4.920;2022-10-03T02:45:44;14.40;96.40
17370;DHT22;8802;52.402;4.920;2022-10-03T02:51:54;14.30;96.40
17370;DHT22;8802;52.402;4.920;2022-10-03T02:54:55;14.30;96.40
17370;DHT22;8802;52.402;4.920;2022-10-03T02:57:57;14.30;96.40
17370;DHT22;8802;52.402;4.920;2022-10-03T03:00:37;14.30;96.40
17370;DHT22;8802;52.402;4.920;2022-10-03T03:03:28;14.20;96.40
17370;DHT22;8802;52.402;4.920;2022-10-03T03:06:27;14.20;96.40
17370;DHT22;8802;52.402;4.920;2022-10-03T03:09:19;14.20;96.40
17370;DHT22;8802;52.402;4.920;2022-10-03T03:15:29;14.20;96.50
17370;DHT22;8802;52.402;4.920;2022-10-03T03:18:11;14.10;96.30
17370;DHT22;8802;52.402;4.920;2022-10-03T03:20:53;14.10;96.40
17370;DHT22;8802;52.402;4.920;2022-10-03T03:23:37;14.00;96.40
17370;DHT22;8802;52.402;4.920;2022-10-03T03:29:10;14.00;96.40
17370;DHT22;8802;52.402;4.920;2022-10-03T03:31:50;14.10;96.60
17370;DHT22;8802;52.402;4.920;2022-10-03T03:34:32;14.00;96.60
17370;DHT22;8802;52.402;4.920;2022-10-03T03:37:08;14.00;96.60
17370;DHT22;8802;52.402;4.920;2022-10-03T03:39:52;14.00;96.70
17370;DHT22;8802;52.402;4.920;2022-10-03T03:42:36;14.00;96.70
17370;DHT22;8802;52.402;4.920;2022-10-03T03:45:16;13.90;96.70
17370;DHT22;8802;52.402;4.920;2022-10-03T03:48:08;14.00;96.70
17370;DHT22;8802;52.402;4.920;2022-10-03T03:50:45;14.00;96.70
17370;DHT22;8802;52.402;4.920;2022-10-03T03:53:40;14.00;96.80
17370;DHT22;8802;52.402;4.920;2022-10-03T03:56:37;14.00;96.80
17370;DHT22;8802;52.402;4.920;2022-10-03T03:59:19;14.00;96.80
17370;DHT22;8802;52.402;4.920;2022-10-03T04:02:15;14.00;97.20
17370;DHT22;8802;52.402;4.920;2022-10-03T04:04:59;13.90;96.70
17370;DHT22;8802;52.402;4.920;2022-10-03T04:07:44;13.90;96.80
17370;DHT22;8802;52.402;4.920;2022-10-03T04:10:26;13.90;96.80
17370;DHT22;8802;52.402;4.920;2022-10-03T04:13:19;13.90;96.90
17370;DHT22;8802;52.402;4.920;2022-10-03T04:16:08;13.90;96.90
17370;DHT22;8802;52.402;4.920;2022-10-03T04:18:47;13.90;96.90
17370;DHT22;8802;52.402;4.920;2022-10-03T04:21:43;13.90;96.90
17370;DHT22;8802;52.402;4.920;2022-10-03T04:30:25;13.90;97.00
17370;DHT22;8802;52.402;4.920;2022-10-03T04:33:08;13.90;97.10
17370;DHT22;8802;52.402;4.920;2022-10-03T04:35:54;13.90;97.20
17370;DHT22;8802;52.402;4.920;2022-10-03T04:38:42;13.90;97.20
17370;DHT22;8802;52.402;4.920;2022-10-03T04:41:15;13.90;97.30
17370;DHT22;8802;52.402;4.920;2022-10-03T04:43:50;13.90;97.30
17370;DHT22;8802;52.402;4.920;2022-10-03T04:46:26;14.00;97.40
17370;DHT22;8802;52.402;4.920;2022-10-03T04:48:58;14.00;97.30
17370;DHT22;8802;52.402;4.920;2022-10-03T04:51:39;14.00;97.30
17370;DHT22;8802;52.402;4.920;2022-10-03T04:54:15;13.90;97.30
17370;DHT22;8802;52.402;4.920;2022-10-03T04:56:51;13.90;97.30
17370;DHT22;8802;52.402;4.920;2022-10-03T04:59:33;13.90;97.30
17370;DHT22;8802;52.402;4.920;2022-10-03T05:02:08;13.90;97.30
17370;DHT22;8802;52.402;4.920;2022-10-03T05:04:43;13.90;97.20
17370;DHT22;8802;52.402;4.920;2022-10-03T05:07:19;13.90;97.30
17370;DHT22;8802;52.402;4.920;2022-10-03T05:09:51;14.00;97.30
17370;DHT22;8802;52.402;4.920;2022-10-03T05:12:27;13.90;97.30
17370;DHT22;8802;52.402;4.920;2022-10-03T05:15:19;13.90;97.30
17370;DHT22;8802;52.402;4.920;2022-10-03T05:17:57;13.90;97.30
17370;DHT22;8802;52.402;4.920;2022-10-03T05:20:39;14.00;97.30
17370;DHT22;8802;52.402;4.920;2022-10-03T05:23:28;13.90;97.30
17370;DHT22;8802;52.402;4.920;2022-10-03T05:26:03;13.90;97.40
17370;DHT22;8802;52.402;4.920;2022-10-03T05:28:37;13.90;97.50
17370;DHT22;8802;52.402;4.920;2022-10-03T05:31:19;13.90;98.00
17370;DHT22;8802;52.402;4.920;2022-10-03T05:33:53;14.00;97.60
17370;DHT22;8802;52.402;4.920;2022-10-03T05:36:29;13.90;97.70
17370;DHT22;8802;52.402;4.920;2022-10-03T05:39:33;13.90;97.80
17370;DHT22;8802;52.402;4.920;2022-10-03T05:45:03;14.00;98.00
17370;DHT22;8802;52.402;4.920;2022-10-03T05:47:35;14.00;98.00
17370;DHT22;8802;52.402;4.920;2022-10-03T05:50:40;14.00;98.00
17370;DHT22;8802;52.402;4.920;2022-10-03T05:53:21;14.10;98.10
17370;DHT22;8802;52.402;4.920;2022-10-03T05:56:06;14.10;98.10
17370;DHT22;8802;52.402;4.920;2022-10-03T05:58:48;14.20;98.10
17370;DHT22;8802;52.402;4.920;2022-10-03T06:04:56;14.20;98.10
17370;DHT22;8802;52.402;4.920;2022-10-03T06:07:30;14.30;98.10
17370;DHT22;8802;52.402;4.920;2022-10-03T06:10:23;14.30;98.10
17370;DHT22;8802;52.402;4.920;2022-10-03T06:13:09;14.30;98.10
17370;DHT22;8802;52.402;4.920;2022-10-03T06:15:46;14.30;98.10
17370;DHT22;8802;52.402;4.920;2022-10-03T06:18:46;14.40;98.20
17370;DHT22;8802;52.402;4.920;2022-10-03T06:25:09;14.40;98.10
17370;DHT22;8802;52.402;4.920;2022-10-03T06:28:06;14.50;98.50
17370;DHT22;8802;52.402;4.920;2022-10-03T06:30:51;14.60;98.20
17370;DHT22;8802;52.402;4.920;2022-10-03T06:33:55;14.60;98.20
17370;DHT22;8802;52.402;4.920;2022-10-03T06:36:51;14.60;98.20
17370;DHT22;8802;52.402;4.920;2022-10-03T06:40:03;14.60;98.10
17370;DHT22;8802;52.402;4.920;2022-10-03T06:46:09;14.70;98.20
17370;DHT22;8802;52.402;4.920;2022-10-03T06:49:25;14.70;98.20
17370;DHT22;8802;52.402;4.920;2022-10-03T06:52:25;14.80;98.20
17370;DHT22;8802;52.402;4.920;2022-10-03T06:55:18;14.80;98.20
17370;DHT22;8802;52.402;4.920;2022-10-03T07:01:03;14.90;98.30
17370;DHT22;8802;52.402;4.920;2022-10-03T07:03:58;15.00;98.30
17370;DHT22;8802;52.402;4.920;2022-10-03T07:12:52;15.10;98.30
17370;DHT22;8802;52.402;4.920;2022-10-03T07:19:06;15.20;98.40
17370;DHT22;8802;52.402;4.920;2022-10-03T07:31:10;15.30;98.50
17370;DHT22;8802;52.402;4.920;2022-10-03T07:36:53;15.50;98.50
17370;DHT22;8802;52.402;4.920;2022-10-03T07:40:08;15.50;98.50
17370;DHT22;8802;52.402;4.920;2022-10-03T07:43:20;15.60;98.50
17370;DHT22;8802;52.402;4.920;2022-10-03T07:46:24;15.60;98.40
17370;DHT22;8802;52.402;4.920;2022-10-03T07:49:15;15.70;98.50
17370;DHT22;8802;52.402;4.920;2022-10-03T07:52:01;15.80;98.40
17370;DHT22;8802;52.402;4.920;2022-10-03T07:55:03;15.80;98.40
17370;DHT22;8802;52.402;4.920;2022-10-03T07:58:20;15.80;98.30
17370;DHT22;8802;52.402;4.920;2022-10-03T08:01:16;15.90;98.40
17370;DHT22;8802;52.402;4.920;2022-10-03T08:06:42;16.00;98.30
17370;DHT22;8802;52.402;4.920;2022-10-03T08:12:49;16.10;98.40
17370;DHT22;8802;52.402;4.920;2022-10-03T08:15:29;16.20;98.50
17370;DHT22;8802;52.402;4.920;2022-10-03T08:18:33;16.20;98.40
17370;DHT22;8802;52.402;4.920;2022-10-03T08:21:09;16.30;98.30
17370;DHT22;8802;52.402;4.920;2022-10-03T08:24:10;16.30;98.20
17370;DHT22;8802;52.402;4.920;2022-10-03T08:26:54;16.40;98.00
17370;DHT22;8802;52.402;4.920;2022-10-03T08:29:47;16.50;97.90
17370;DHT22;8802;52.402;4.920;2022-10-03T08:32:52;16.50;97.80
17370;DHT22;8802;52.402;4.920;2022-10-03T08:35:40;16.50;97.80
17370;DHT22;8802;52.402;4.920;2022-10-03T08:38:26;16.60;97.70
17370;DHT22;8802;52.402;4.920;2022-10-03T08:51:14;16.80;97.50
17370;DHT22;8802;52.402;4.920;2022-10-03T08:57:07;17.00;97.30
17370;DHT22;8802;52.402;4.920;2022-10-03T09:00:13;17.00;97.20
17370;DHT22;8802;52.402;4.920;2022-10-03T09:09:11;17.20;97.00
17370;DHT22;8802;52.402;4.920;2022-10-03T09:12:00;17.20;96.90
17370;DHT22;8802;52.402;4.920;2022-10-03T09:15:05;17.30;96.80
17370;DHT22;8802;52.402;4.920;2022-10-03T09:18:11;17.30;96.80
17370;DHT22;8802;52.402;4.920;2022-10-03T09:24:06;17.50;96.80
17370;DHT22;8802;52.402;4.920;2022-10-03T09:27:03;17.50;96.50
17370;DHT22;8802;52.402;4.920;2022-10-03T09:30:14;17.50;96.50
17370;DHT22;8802;52.402;4.920;2022-10-03T09:33:05;17.50;96.60
17370;DHT22;8802;52.402;4.920;2022-10-03T09:38:43;17.60;96.60
17370;DHT22;8802;52.402;4.920;2022-10-03T09:41:40;17.70;96.20
17370;DHT22;8802;52.402;4.920;2022-10-03T09:53:38;17.90;95.60
17370;DHT22;8802;52.402;4.920;2022-10-03T09:56:30;18.00;95.80
17370;DHT22;8802;52.402;4.920;2022-10-03T09:59:23;18.00;95.30
17370;DHT22;8802;52.402;4.920;2022-10-03T10:02:08;18.10;95.40
17370;DHT22;8802;52.402;4.920;2022-10-03T10:04:56;18.20;95.40
17370;DHT22;8802;52.402;4.920;2022-10-03T10:07:51;18.20;95.40
17370;DHT22;8802;52.402;4.920;2022-10-03T10:20:22;18.50;95.30
17370;DHT22;8802;52.402;4.920;2022-10-03T10:23:16;18.60;95.30
17370;DHT22;8802;52.402;4.920;2022-10-03T10:29:05;18.80;94.90
17370;DHT22;8802;52.402;4.920;2022-10-03T10:37:56;19.10;94.80
17370;DHT22;8802;52.402;4.920;2022-10-03T10:47:11;19.40;93.90
17370;DHT22;8802;52.402;4.920;2022-10-03T10:50:09;19.50;93.60
17370;DHT22;8802;52.402;4.920;2022-10-03T10:56:11;19.60;93.70
17370;DHT22;8802;52.402;4.920;2022-10-03T11:05:45;19.80;93.10
17370;DHT22;8802;52.402;4.920;2022-10-03T11:17:38;19.90;92.80
17370;DHT22;8802;52.402;4.920;2022-10-03T11:20:46;19.90;92.40
17370;DHT22;8802;52.402;4.920;2022-10-03T11:26:50;20.00;92.00
17370;DHT22;8802;52.402;4.920;2022-10-03T11:29:49;20.00;92.20
17370;DHT22;8802;52.402;4.920;2022-10-03T11:36:04;20.10;92.20
17370;DHT22;8802;52.402;4.920;2022-10-03T11:38:37;20.10;92.30
17370;DHT22;8802;52.402;4.920;2022-10-03T11:41:14;20.10;92.10
17370;DHT22;8802;52.402;4.920;2022-10-03T11:44:07;20.10;92.40
17370;DHT22;8802;52.402;4.920;2022-10-03T11:46:50;20.10;92.40
17370;DHT22;8802;52.402;4.920;2022-10-03T11:49:34;20.10;92.10
17370;DHT22;8802;52.402;4.920;2022-10-03T11:52:15;20.20;92.30
17370;DHT22;8802;52.402;4.920;2022-10-03T11:54:45;20.20;92.00
17370;DHT22;8802;52.402;4.920;2022-10-03T11:57:19;20.20;92.30
17370;DHT22;8802;52.402;4.920;2022-10-03T11:59:58;20.20;92.10
17370;DHT22;8802;52.402;4.920;2022-10-03T12:02:48;20.30;91.40
17370;DHT22;8802;52.402;4.920;2022-10-03T12:05:27;20.30;91.60
17370;DHT22;8802;52.402;4.920;2022-10-03T12:08:15;20.30;91.40
17370;DHT22;8802;52.402;4.920;2022-10-03T12:11:05;20.30;91.40
17370;DHT22;8802;52.402;4.920;2022-10-03T12:13:40;20.30;91.70
17370;DHT22;8802;52.402;4.920;2022-10-03T12:16:16;20.40;91.50
17370;DHT22;8802;52.402;4.920;2022-10-03T12:18:53;20.40;90.80
17370;DHT22;8802;52.402;4.920;2022-10-03T12:21:26;20.40;90.60
17370;DHT22;8802;52.402;4.920;2022-10-03T12:24:04;20.40;90.90
17370;DHT22;8802;52.402;4.920;2022-10-03T12:26:46;20.40;91.10
17370;DHT22;8802;52.402;4.920;2022-10-03T12:29:18;20.50;90.60
17370;DHT22;8802;52.402;4.920;2022-10-03T12:31:55;20.50;90.80
17370;DHT22;8802;52.402;4.920;2022-10-03T12:34:36;20.50;90.30
17370;DHT22;8802;52.402;4.920;2022-10-03T12:40:19;20.60;90.00
17370;DHT22;8802;52.402;4.920;2022-10-03T12:42:59;20.60;90.40
17370;DHT22;8802;52.402;4.920;2022-10-03T12:45:32;20.60;89.80
17370;DHT22;8802;52.402;4.920;2022-10-03T12:48:18;20.70;90.30
17370;DHT22;8802;52.402;4.920;2022-10-03T12:50:53;20.70;90.00
17370;DHT22;8802;52.402;4.920;2022-10-03T12:53:30;20.70;89.30
17370;DHT22;8802;52.402;4.920;2022-10-03T12:56:05;20.80;88.70
17370;DHT22;8802;52.402;4.920;2022-10-03T12:58:50;20.80;88.30
17370;DHT22;8802;52.402;4.920;2022-10-03T13:01:26;20.80;89.00
17370;DHT22;8802;52.402;4.920;2022-10-03T13:03:59;20.90;89.00
17370;DHT22;8802;52.402;4.920;2022-10-03T13:06:41;21.00;88.80
17370;DHT22;8802;52.402;4.920;2022-10-03T13:09:21;21.00;87.80
17370;DHT22;8802;52.402;4.920;2022-10-03T13:11:59;21.10;87.60
17370;DHT22;8802;52.402;4.920;2022-10-03T13:14:39;21.10;87.80
17370;DHT22;8802;52.402;4.920;2022-10-03T13:17:14;21.10;87.70
17370;DHT22;8802;52.402;4.920;2022-10-03T13:19:52;21.20;88.60
17370;DHT22;8802;52.402;4.920;2022-10-03T13:22:28;21.20;88.90
17370;DHT22;8802;52.402;4.920;2022-10-03T13:25:02;21.20;87.40
17370;DHT22;8802;52.402;4.920;2022-10-03T13:27:36;21.20;86.70
17370;DHT22;8802;52.402;4.920;2022-10-03T13:30:11;21.20;87.50
17370;DHT22;8802;52.402;4.920;2022-10-03T13:32:42;21.20;87.60
17370;DHT22;8802;52.402;4.920;2022-10-03T13:35:19;21.20;87.50
17370;DHT22;8802;52.402;4.920;2022-10-03T13:41:07;21.20;87.30
17370;DHT22;8802;52.402;4.920;2022-10-03T13:43:37;21.20;86.80
17370;DHT22;8802;52.402;4.920;2022-10-03T13:46:11;21.20;86.40
17370;DHT22;8802;52.402;4.920;2022-10-03T13:48:40;21.20;86.00
17370;DHT22;8802;52.402;4.920;2022-10-03T13:51:18;21.20;87.00
17370;DHT22;8802;52.402;4.920;2022-10-03T13:53:56;21.10;87.80
17370;DHT22;8802;52.402;4.920;2022-10-03T13:56:45;21.20;88.70
17370;DHT22;8802;52.402;4.920;2022-10-03T13:59:27;21.10;87.70
17370;DHT22;8802;52.402;4.920;2022-10-03T14:02:03;21.10;87.80
17370;DHT22;8802;52.402;4.920;2022-10-03T14:05:01;21.10;88.10
17370;DHT22;8802;52.402;4.920;2022-10-03T14:07:41;21.10;88.40
17370;DHT22;8802;52.402;4.920;2022-10-03T14:10:27;21.10;87.60
17370;DHT22;8802;52.402;4.920;2022-10-03T14:13:12;21.00;87.80
17370;DHT22;8802;52.402;4.920;2022-10-03T14:15:50;21.00;87.90
17370;DHT22;8802;52.402;4.920;2022-10-03T14:18:28;21.00;88.30
17370;DHT22;8802;52.402;4.920;2022-10-03T14:23:50;20.90;88.10
17370;DHT22;8802;52.402;4.920;2022-10-03T14:26:23;20.90;88.50
17370;DHT22;8802;52.402;4.920;2022-10-03T14:28:58;20.80;88.70
17370;DHT22;8802;52.402;4.920;2022-10-03T14:31:33;20.80;89.20
17370;DHT22;8802;52.402;4.920;2022-10-03T14:34:03;20.80;88.80
17370;DHT22;8802;52.402;4.920;2022-10-03T14:36:37;20.80;88.90
17370;DHT22;8802;52.402;4.920;2022-10-03T14:39:19;20.70;88.90
17370;DHT22;8802;52.402;4.920;2022-10-03T14:42:14;20.70;88.60
17370;DHT22;8802;52.402;4.920;2022-10-03T14:44:45;20.70;89.20
17370;DHT22;8802;52.402;4.920;2022-10-03T14:47:15;20.70;89.80
17370;DHT22;8802;52.402;4.920;2022-10-03T14:49:47;20.70;89.70
17370;DHT22;8802;52.402;4.920;2022-10-03T14:52:25;20.60;89.80
17370;DHT22;8802;52.402;4.920;2022-10-03T14:54:56;20.60;89.30
17370;DHT22;8802;52.402;4.920;2022-10-03T14:57:31;20.60;90.00
17370;DHT22;8802;52.402;4.920;2022-10-03T14:59:59;20.60;89.60
17370;DHT22;8802;52.402;4.920;2022-10-03T15:02:29;20.70;90.10
17370;DHT22;8802;52.402;4.920;2022-10-03T15:05:02;20.60;89.70
17370;DHT22;8802;52.402;4.920;2022-10-03T15:07:35;20.60;89.80
17370;DHT22;8802;52.402;4.920;2022-10-03T15:10:08;20.60;90.00
17370;DHT22;8802;52.402;4.920;2022-10-03T15:12:40;20.60;89.80
17370;DHT22;8802;52.402;4.920;2022-10-03T15:15:14;20.60;89.80
17370;DHT22;8802;52.402;4.920;2022-10-03T15:17:47;20.60;89.80
17370;DHT22;8802;52.402;4.920;2022-10-03T15:20:17;20.60;90.20
17370;DHT22;8802;52.402;4.920;2022-10-03T15:22:50;20.60;90.20
17370;DHT22;8802;52.402;4.920;2022-10-03T15:25:22;20.50;90.00
17370;DHT22;8802;52.402;4.920;2022-10-03T15:27:51;20.50;90.00
17370;DHT22;8802;52.402;4.920;2022-10-03T15:30:21;20.50;90.00
17370;DHT22;8802;52.402;4.920;2022-10-03T15:32:51;20.50;90.20
17370;DHT22;8802;52.402;4.920;2022-10-03T15:35:23;20.50;90.00
17370;DHT22;8802;52.402;4.920;2022-10-03T15:37:52;20.50;90.10
17370;DHT22;8802;52.402;4.920;2022-10-03T15:40:28;20.50;89.70
17370;DHT22;8802;52.402;4.920;2022-10-03T15:43:02;20.50;89.60
17370;DHT22;8802;52.402;4.920;2022-10-03T15:45:33;20.40;89.10
17370;DHT22;8802;52.402;4.920;2022-10-03T15:48:04;20.40;88.50
17370;DHT22;8802;52.402;4.920;2022-10-03T15:50:36;20.40;88.90
17370;DHT22;8802;52.402;4.920;2022-10-03T15:53:07;20.40;88.10
17370;DHT22;8802;52.402;4.920;2022-10-03T15:55:40;20.30;88.70
17370;DHT22;8802;52.402;4.920;2022-10-03T15:58:14;20.40;88.30
17370;DHT22;8802;52.402;4.920;2022-10-03T16:00:46;20.30;87.90
17370;DHT22;8802;52.402;4.920;2022-10-03T16:03:16;20.30;87.00
17370;DHT22;8802;52.402;4.920;2022-10-03T16:05:53;20.30;87.80
17370;DHT22;8802;52.402;4.920;2022-10-03T16:08:25;20.30;87.80
17370;DHT22;8802;52.402;4.920;2022-10-03T16:11:04;20.30;87.80
17370;DHT22;8802;52.402;4.920;2022-10-03T16:13:35;20.30;87.80
17370;DHT22;8802;52.402;4.920;2022-10-03T16:16:15;20.20;87.40
17370;DHT22;8802;52.402;4.920;2022-10-03T16:18:47;20.20;87.50
17370;DHT22;8802;52.402;4.920;2022-10-03T16:24:07;20.20;88.00
17370;DHT22;8802;52.402;4.920;2022-10-03T16:26:49;20.20;87.40
17370;DHT22;8802;52.402;4.920;2022-10-03T16:29:19;20.10;88.00
17370;DHT22;8802;52.402;4.920;2022-10-03T16:31:51;20.10;87.50
17370;DHT22;8802;52.402;4.920;2022-10-03T16:34:20;20.00;88.10
17370;DHT22;8802;52.402;4.920;2022-10-03T16:36:50;20.00;87.80
17370;DHT22;8802;52.402;4.920;2022-10-03T16:39:19;20.00;88.50
17370;DHT22;8802;52.402;4.920;2022-10-03T16:41:52;19.90;88.80
17370;DHT22;8802;52.402;4.920;2022-10-03T16:44:23;19.90;88.60
17370;DHT22;8802;52.402;4.920;2022-10-03T16:46:53;19.80;89.10
17370;DHT22;8802;52.402;4.920;2022-10-03T16:49:32;19.80;89.20
17370;DHT22;8802;52.402;4.920;2022-10-03T16:52:30;19.80;89.10
17370;DHT22;8802;52.402;4.920;2022-10-03T16:55:02;19.80;89.60
17370;DHT22;8802;52.402;4.920;2022-10-03T16:57:43;19.70;89.50
17370;DHT22;8802;52.402;4.920;2022-10-03T17:00:15;19.60;89.70
17370;DHT22;8802;52.402;4.920;2022-10-03T17:02:44;19.60;90.40
17370;DHT22;8802;52.402;4.920;2022-10-03T17:05:12;19.60;90.20
17370;DHT22;8802;52.402;4.920;2022-10-03T17:07:42;19.50;90.00
17370;DHT22;8802;52.402;4.920;2022-10-03T17:10:37;19.40;90.10
17370;DHT22;8802;52.402;4.920;2022-10-03T17:13:13;19.40;90.20
17370;DHT22;8802;52.402;4.920;2022-10-03T17:15:46;19.30;90.30
17370;DHT22;8802;52.402;4.920;2022-10-03T17:18:19;19.30;90.30
17370;DHT22;8802;52.402;4.920;2022-10-03T17:20:49;19.20;90.40
17370;DHT22;8802;52.402;4.920;2022-10-03T17:23:27;19.20;90.60
17370;DHT22;8802;52.402;4.920;2022-10-03T17:26:00;19.20;90.70
17370;DHT22;8802;52.402;4.920;2022-10-03T17:28:37;19.10;90.80
17370;DHT22;8802;52.402;4.920;2022-10-03T17:34:03;19.00;90.70
17370;DHT22;8802;52.402;4.920;2022-10-03T17:36:58;18.90;90.70
17370;DHT22;8802;52.402;4.920;2022-10-03T17:39:37;18.90;90.90
17370;DHT22;8802;52.402;4.920;2022-10-03T17:42:17;18.90;91.10
17370;DHT22;8802;52.402;4.920;2022-10-03T17:44:55;18.80;91.10
17370;DHT22;8802;52.402;4.920;2022-10-03T17:47:32;18.80;91.30
17370;DHT22;8802;52.402;4.920;2022-10-03T17:50:06;18.70;91.30
17370;DHT22;8802;52.402;4.920;2022-10-03T17:52:39;18.70;91.40
17370;DHT22;8802;52.402;4.920;2022-10-03T17:55:12;18.70;91.50
17370;DHT22;8802;52.402;4.920;2022-10-03T17:57:45;18.80;91.70
17370;DHT22;8802;52.402;4.920;2022-10-03T18:00:19;18.60;91.70
17370;DHT22;8802;52.402;4.920;2022-10-03T18:02:54;18.50;91.80
17370;DHT22;8802;52.402;4.920;2022-10-03T18:05:26;18.50;91.90
17370;DHT22;8802;52.402;4.920;2022-10-03T18:07:55;18.50;92.00
17370;DHT22;8802;52.402;4.920;2022-10-03T18:10:30;18.40;92.10
17370;DHT22;8802;52.402;4.920;2022-10-03T18:13:00;18.40;92.10
17370;DHT22;8802;52.402;4.920;2022-10-03T18:21:45;18.20;92.10
17370;DHT22;8802;52.402;4.920;2022-10-03T18:24:26;18.20;92.20
17370;DHT22;8802;52.402;4.920;2022-10-03T18:27:08;18.20;92.30
17370;DHT22;8802;52.402;4.920;2022-10-03T18:29:44;18.10;92.80
17370;DHT22;8802;52.402;4.920;2022-10-03T18:32:18;18.10;92.90
17370;DHT22;8802;52.402;4.920;2022-10-03T18:34:51;18.10;92.60
17370;DHT22;8802;52.402;4.920;2022-10-03T18:37:50;18.00;92.70
17370;DHT22;8802;52.402;4.920;2022-10-03T18:40:20;18.00;92.80
17370;DHT22;8802;52.402;4.920;2022-10-03T18:42:48;17.90;92.90
17370;DHT22;8802;52.402;4.920;2022-10-03T18:45:19;17.90;93.00
17370;DHT22;8802;52.402;4.920;2022-10-03T18:47:51;17.90;93.10
17370;DHT22;8802;52.402;4.920;2022-10-03T18:50:21;17.90;93.10
17370;DHT22;8802;52.402;4.920;2022-10-03T18:52:52;17.90;93.20
17370;DHT22;8802;52.402;4.920;2022-10-03T18:55:25;17.90;93.20
17370;DHT22;8802;52.402;4.920;2022-10-03T18:57:59;17.80;93.20
17370;DHT22;8802;52.402;4.920;2022-10-03T19:00:32;17.80;93.30
17370;DHT22;8802;52.402;4.920;2022-10-03T19:03:10;17.80;93.70
17370;DHT22;8802;52.402;4.920;2022-10-03T19:05:42;17.80;93.50
17370;DHT22;8802;52.402;4.920;2022-10-03T19:08:19;17.80;93.60
17370;DHT22;8802;52.402;4.920;2022-10-03T19:10:47;17.80;93.70
17370;DHT22;8802;52.402;4.920;2022-10-03T19:13:24;17.80;93.70
17370;DHT22;8802;52.402;4.920;2022-10-03T19:16:08;17.80;93.80
17370;DHT22;8802;52.402;4.920;2022-10-03T19:18:42;17.70;93.90
17370;DHT22;8802;52.402;4.920;2022-10-03T19:21:15;17.80;94.00
17370;DHT22;8802;52.402;4.920;2022-10-03T19:23:48;17.70;94.00
17370;DHT22;8802;52.402;4.920;2022-10-03T19:26:22;17.70;94.00
17370;DHT22;8802;52.402;4.920;2022-10-03T19:28:52;17.70;94.10
17370;DHT22;8802;52.402;4.920;2022-10-03T19:31:23;17.70;94.10
17370;DHT22;8802;52.402;4.920;2022-10-03T19:33:57;17.70;94.10
17370;DHT22;8802;52.402;4.920;2022-10-03T19:36:27;17.70;94.20
17370;DHT22;8802;52.402;4.920;2022-10-03T19:38:57;17.70;94.20
17370;DHT22;8802;52.402;4.920;2022-10-03T19:41:28;17.70;94.20
17370;DHT22;8802;52.402;4.920;2022-10-03T19:44:01;17.70;94.20
17370;DHT22;8802;52.402;4.920;2022-10-03T19:46:47;17.70;94.20
17370;DHT22;8802;52.402;4.920;2022-10-03T19:49:24;17.70;94.20
17370;DHT22;8802;52.402;4.920;2022-10-03T19:52:18;17.70;94.30
17370;DHT22;8802;52.402;4.920;2022-10-03T19:54:53;17.70;94.30
17370;DHT22;8802;52.402;4.920;2022-10-03T19:57:25;17.70;94.40
17370;DHT22;8802;52.402;4.920;2022-10-03T19:59:57;17.70;94.40
17370;DHT22;8802;52.402;4.920;2022-10-03T20:02:26;17.70;94.40
17370;DHT22;8802;52.402;4.920;2022-10-03T20:04:56;17.70;94.40
17370;DHT22;8802;52.402;4.920;2022-10-03T20:07:35;17.70;94.40
17370;DHT22;8802;52.402;4.920;2022-10-03T20:10:25;17.70;94.40
17370;DHT22;8802;52.402;4.920;2022-10-03T20:12:56;17.70;94.50